createdAt,value
2019-02-03T00:00:59.080Z,32.40
2019-02-03T00:01:59.305Z,32.70
2019-02-03T00:02:59.517Z,31.90
2019-02-03T00:03:59.735Z,29.60
2019-02-03T00:04:59.958Z,29.90
2019-02-03T00:06:00.192Z,28.90
2019-02-03T00:07:03.511Z,26.80
2019-02-03T00:08:00.633Z,28.70
2019-02-03T00:09:00.847Z,27.40
2019-02-03T00:10:01.064Z,27.10
2019-02-03T00:11:01.285Z,26.20
2019-02-03T00:12:01.514Z,27.20
2019-02-03T00:13:01.722Z,27.10
2019-02-03T00:14:01.936Z,27.20
2019-02-03T00:15:02.308Z,27.30
2019-02-03T00:16:02.384Z,26.20
2019-02-03T00:17:02.604Z,26.40
2019-02-03T00:18:02.824Z,27.60
2019-02-03T00:19:03.045Z,27.50
2019-02-03T00:20:03.255Z,25.70
2019-02-03T00:21:03.478Z,24.40
2019-02-03T00:22:03.696Z,25.90
2019-02-03T00:23:03.916Z,25.70
2019-02-03T00:24:04.134Z,25.00
2019-02-03T00:25:04.354Z,25.90
2019-02-03T00:26:04.581Z,25.40
2019-02-03T00:27:04.802Z,25.80
2019-02-03T00:28:05.117Z,26.00
2019-02-03T00:29:05.244Z,25.50
2019-02-03T00:30:05.460Z,26.30
2019-02-03T00:31:05.681Z,26.60
2019-02-03T00:32:05.902Z,26.40
2019-02-03T00:33:06.124Z,26.80
2019-02-03T00:34:06.344Z,27.50
2019-02-03T00:35:06.571Z,26.80
2019-02-03T00:36:06.791Z,26.40
2019-02-03T00:37:15.289Z,26.40
2019-02-03T00:38:07.280Z,25.90
2019-02-03T00:39:07.541Z,26.70
2019-02-03T00:40:07.768Z,26.80
2019-02-03T00:41:07.975Z,27.30
2019-02-03T00:42:08.113Z,28.30
2019-02-03T00:43:08.335Z,28.50
2019-02-03T00:44:08.553Z,29.50
2019-02-03T00:45:08.773Z,27.90
2019-02-03T00:46:08.994Z,29.00
2019-02-03T00:47:09.213Z,29.70
2019-02-03T00:48:09.437Z,29.30
2019-02-03T00:49:09.656Z,28.80
2019-02-03T00:50:09.876Z,30.30
2019-02-03T00:51:10.132Z,30.90
2019-02-03T00:52:10.309Z,29.50
2019-02-03T00:53:10.530Z,31.00
2019-02-03T00:54:10.748Z,31.10
2019-02-03T00:55:10.970Z,30.00
2019-02-03T00:56:11.198Z,30.80
2019-02-03T00:57:11.409Z,30.90
2019-02-03T00:58:11.627Z,31.10
2019-02-03T00:59:11.847Z,32.30
2019-02-03T01:00:12.065Z,31.70
2019-02-03T01:01:12.313Z,30.10
2019-02-03T01:02:12.506Z,32.60
2019-02-03T01:03:12.729Z,32.20
2019-02-03T01:04:12.951Z,32.00
2019-02-03T01:05:13.167Z,33.40
2019-02-03T01:06:13.391Z,33.50
2019-02-03T01:07:13.610Z,34.00
2019-02-03T01:08:13.826Z,33.20
2019-02-03T01:09:14.045Z,34.20
2019-02-03T01:10:14.268Z,31.80
2019-02-03T01:11:14.476Z,32.90
2019-02-03T01:12:14.697Z,33.90
2019-02-03T01:13:14.913Z,33.20
2019-02-03T01:14:15.138Z,34.00
2019-02-03T01:15:15.364Z,33.70
2019-02-03T01:16:15.580Z,34.00
2019-02-03T01:17:15.797Z,33.10
2019-02-03T01:18:16.040Z,33.70
2019-02-03T01:19:16.236Z,34.10
2019-02-03T01:20:16.454Z,33.40
2019-02-03T01:21:16.678Z,33.90
2019-02-03T01:22:16.877Z,33.80
2019-02-03T01:23:17.099Z,34.80
2019-02-03T01:24:17.319Z,33.50
2019-02-03T01:25:17.535Z,33.10
2019-02-03T01:26:17.754Z,32.50
2019-02-03T01:27:17.974Z,32.10
2019-02-03T01:28:18.188Z,33.00
2019-02-03T01:29:18.408Z,32.40
2019-02-03T01:30:18.631Z,33.50
2019-02-03T01:31:18.847Z,33.20
2019-02-03T01:32:19.070Z,31.80
2019-02-03T01:33:19.291Z,33.70
2019-02-03T01:34:19.509Z,33.30
2019-02-03T01:35:19.728Z,32.70
2019-02-03T01:36:19.957Z,33.80
2019-02-03T01:37:20.169Z,32.20
2019-02-03T01:38:20.387Z,32.80
2019-02-03T01:39:20.608Z,33.50
2019-02-03T01:40:20.827Z,31.40
2019-02-03T01:41:21.065Z,33.60
2019-02-03T01:42:21.260Z,31.80
2019-02-03T01:43:21.486Z,33.90
2019-02-03T01:44:23.161Z,33.00
2019-02-03T01:45:21.913Z,31.50
2019-02-03T01:46:22.125Z,33.20
2019-02-03T01:47:22.361Z,33.50
2019-02-03T01:48:22.549Z,34.80
2019-02-03T01:49:22.813Z,33.50
2019-02-03T01:50:23.016Z,34.30
2019-02-03T01:51:23.227Z,36.40
2019-02-03T01:52:23.478Z,36.50
2019-02-03T01:53:23.658Z,36.20
2019-02-03T01:54:23.876Z,39.40
2019-02-03T01:55:24.085Z,36.60
2019-02-03T01:56:24.345Z,38.30
2019-02-03T01:57:24.553Z,37.50
2019-02-03T01:58:24.737Z,39.40
2019-02-03T01:59:24.956Z,37.80
2019-02-03T02:00:25.185Z,39.60
2019-02-03T02:01:25.388Z,38.90
2019-02-03T02:02:25.603Z,37.90
2019-02-03T02:03:25.845Z,40.40
2019-02-03T02:04:26.062Z,40.00
2019-02-03T02:05:26.284Z,40.30
2019-02-03T02:06:26.500Z,41.20
2019-02-03T02:07:26.761Z,40.30
2019-02-03T02:08:26.931Z,40.90
2019-02-03T02:09:27.171Z,38.60
2019-02-03T02:10:27.414Z,41.10
2019-02-03T02:11:27.579Z,40.90
2019-02-03T02:12:27.827Z,41.20
2019-02-03T02:13:27.997Z,40.10
2019-02-03T02:14:28.209Z,39.50
2019-02-03T02:15:28.443Z,39.40
2019-02-03T02:16:28.666Z,39.20
2019-02-03T02:17:28.895Z,39.10
2019-02-03T02:18:29.088Z,39.50
2019-02-03T02:19:29.285Z,38.60
2019-02-03T02:20:29.529Z,37.10
2019-02-03T02:21:29.733Z,37.20
2019-02-03T02:22:29.936Z,35.80
2019-02-03T02:23:30.144Z,35.10
2019-02-03T02:24:30.355Z,35.80
2019-02-03T02:25:30.688Z,36.00
2019-02-03T02:26:30.812Z,34.00
2019-02-03T02:27:30.990Z,35.60
2019-02-03T02:28:31.242Z,32.00
2019-02-03T02:29:31.443Z,32.30
2019-02-03T02:30:31.714Z,34.40
2019-02-03T02:31:31.917Z,32.20
2019-02-03T02:32:32.093Z,34.00
2019-02-03T02:33:32.313Z,34.40
2019-02-03T02:34:32.540Z,33.30
2019-02-03T02:35:32.764Z,33.30
2019-02-03T02:36:32.955Z,33.00
2019-02-03T02:37:33.167Z,33.10
2019-02-03T02:38:33.414Z,32.10
2019-02-03T02:39:35.431Z,30.80
2019-02-03T02:40:33.799Z,31.30
2019-02-03T02:41:34.030Z,32.00
2019-02-03T02:42:34.263Z,31.60
2019-02-03T02:43:34.505Z,34.00
2019-02-03T02:44:34.741Z,31.10
2019-02-03T02:45:34.899Z,31.60
2019-02-03T02:46:35.137Z,31.80
2019-02-03T02:47:35.331Z,31.00
2019-02-03T02:48:35.587Z,33.60
2019-02-03T02:49:35.806Z,31.80
2019-02-03T02:50:36.051Z,31.80
2019-02-03T02:51:36.266Z,32.30
2019-02-03T02:52:36.516Z,30.90
2019-02-03T02:53:36.655Z,30.70
2019-02-03T02:54:36.914Z,31.00
2019-02-03T02:55:37.102Z,32.40
2019-02-03T02:56:37.338Z,31.00
2019-02-03T02:57:37.549Z,33.70
2019-02-03T02:58:37.742Z,31.50
2019-02-03T02:59:37.962Z,32.00
2019-02-03T03:00:38.185Z,30.40
2019-02-03T03:01:38.378Z,31.80
2019-02-03T03:02:38.598Z,32.30
2019-02-03T03:03:38.821Z,32.00
2019-02-03T03:04:39.084Z,32.10
2019-02-03T03:05:39.287Z,31.00
2019-02-03T03:06:39.450Z,31.30
2019-02-03T03:07:39.686Z,32.50
2019-02-03T03:08:39.883Z,29.80
2019-02-03T03:09:40.124Z,31.90
2019-02-03T03:10:40.358Z,32.00
2019-02-03T03:11:40.526Z,31.70
2019-02-03T03:12:40.772Z,32.00
2019-02-03T03:13:40.977Z,32.30
2019-02-03T03:14:41.209Z,32.40
2019-02-03T03:15:41.445Z,32.70
2019-02-03T03:16:41.678Z,32.30
2019-02-03T03:17:41.904Z,33.00
2019-02-03T03:18:42.107Z,32.20
2019-02-03T03:19:42.316Z,32.50
2019-02-03T03:20:42.544Z,33.10
2019-02-03T03:21:42.756Z,34.60
2019-02-03T03:22:42.956Z,35.00
2019-02-03T03:23:43.198Z,34.10
2019-02-03T03:24:43.382Z,34.80
2019-02-03T03:25:43.660Z,34.40
2019-02-03T03:26:43.858Z,33.90
2019-02-03T03:27:44.027Z,33.60
2019-02-03T03:28:44.265Z,34.00
2019-02-03T03:29:44.453Z,34.80
2019-02-03T03:30:44.732Z,35.30
2019-02-03T03:31:44.893Z,34.00
2019-02-03T03:32:45.103Z,35.70
2019-02-03T03:33:45.352Z,36.50
2019-02-03T03:34:45.519Z,35.70
2019-02-03T03:35:45.765Z,35.60
2019-02-03T03:36:45.962Z,36.90
2019-02-03T03:37:46.164Z,34.40
2019-02-03T03:38:46.417Z,35.80
2019-02-03T03:39:46.686Z,36.10
2019-02-03T03:40:46.799Z,34.80
2019-02-03T03:41:47.061Z,35.00
2019-02-03T03:42:47.225Z,33.90
2019-02-03T03:43:47.447Z,37.60
2019-02-03T03:44:47.669Z,35.60
2019-02-03T03:45:47.865Z,34.50
2019-02-03T03:46:48.090Z,36.50
2019-02-03T03:47:48.305Z,34.70
2019-02-03T03:48:48.539Z,35.70
2019-02-03T03:49:48.745Z,36.10
2019-02-03T03:50:48.951Z,36.00
2019-02-03T03:51:49.178Z,36.30
2019-02-03T03:52:49.388Z,36.90
2019-02-03T03:53:49.587Z,36.20
2019-02-03T03:54:49.863Z,38.00
2019-02-03T03:55:50.012Z,34.20
2019-02-03T03:56:50.245Z,36.20
2019-02-03T03:57:50.455Z,35.90
2019-02-03T03:58:50.652Z,37.00
2019-02-03T03:59:50.907Z,36.90
2019-02-03T04:00:51.092Z,36.10
2019-02-03T04:01:51.306Z,36.40
2019-02-03T04:02:51.519Z,34.40
2019-02-03T04:03:51.734Z,35.00
2019-02-03T04:04:51.958Z,36.10
2019-02-03T04:05:52.154Z,35.50
2019-02-03T04:06:52.347Z,36.70
2019-02-03T04:07:52.602Z,36.50
2019-02-03T04:08:52.782Z,35.40
2019-02-03T04:09:52.991Z,35.20
2019-02-03T04:10:53.250Z,36.30
2019-02-03T04:11:53.447Z,36.30
2019-02-03T04:12:53.698Z,36.10
2019-02-03T04:13:53.894Z,34.90
2019-02-03T04:14:54.147Z,35.50
2019-02-03T04:15:54.372Z,35.60
2019-02-03T04:16:54.537Z,38.10
2019-02-03T04:17:54.766Z,34.20
2019-02-03T04:18:54.995Z,36.60
2019-02-03T04:19:55.191Z,34.10
2019-02-03T04:20:55.390Z,36.00
2019-02-03T04:21:55.626Z,35.00
2019-02-03T04:22:55.876Z,35.60
2019-02-03T04:23:56.072Z,35.80
2019-02-03T04:24:56.270Z,34.60
2019-02-03T04:25:56.534Z,36.10
2019-02-03T04:26:56.710Z,36.90
2019-02-03T04:27:56.970Z,34.30
2019-02-03T04:28:57.186Z,35.20
2019-02-03T04:29:57.333Z,35.30
2019-02-03T04:30:57.559Z,34.70
2019-02-03T04:31:57.762Z,32.60
2019-02-03T04:32:57.958Z,35.90
2019-02-03T04:33:58.231Z,34.80
2019-02-03T04:34:58.412Z,35.40
2019-02-03T04:35:58.642Z,35.90
2019-02-03T04:36:58.889Z,34.60
2019-02-03T04:37:59.060Z,34.70
2019-02-03T04:38:59.303Z,34.70
2019-02-03T04:39:59.517Z,34.40
2019-02-03T04:40:59.696Z,34.00
2019-02-03T04:41:59.957Z,34.00
2019-02-03T04:43:00.165Z,33.10
2019-02-03T04:44:00.362Z,32.90
2019-02-03T04:45:00.597Z,33.80
2019-02-03T04:46:00.801Z,32.70
2019-02-03T04:47:01.029Z,30.90
2019-02-03T04:48:01.236Z,31.50
2019-02-03T04:49:01.487Z,31.30
2019-02-03T04:50:01.676Z,33.30
2019-02-03T04:51:01.861Z,32.10
2019-02-03T04:52:02.082Z,32.00
2019-02-03T04:53:02.317Z,30.90
2019-02-03T04:54:02.509Z,30.60
2019-02-03T04:55:02.752Z,32.10
2019-02-03T04:56:02.915Z,31.30
2019-02-03T04:57:03.157Z,31.30
2019-02-03T04:58:03.359Z,30.70
2019-02-03T04:59:03.558Z,30.40
2019-02-03T05:00:03.804Z,31.00
2019-02-03T05:01:03.979Z,31.60
2019-02-03T05:02:04.233Z,31.30
2019-02-03T05:03:04.466Z,31.40
2019-02-03T05:04:04.610Z,30.80
2019-02-03T05:05:04.863Z,32.00
2019-02-03T05:06:05.053Z,30.10
2019-02-03T05:07:05.256Z,28.90
2019-02-03T05:08:05.513Z,26.40
2019-02-03T05:09:11.121Z,27.80
2019-02-03T05:10:05.907Z,28.30
2019-02-03T05:11:06.125Z,27.60
2019-02-03T05:12:06.300Z,26.90
2019-02-03T05:13:06.559Z,27.40
2019-02-03T05:14:06.795Z,27.40
2019-02-03T05:15:07.050Z,26.20
2019-02-03T05:16:07.224Z,27.80
2019-02-03T05:17:07.392Z,27.40
2019-02-03T05:18:07.613Z,28.20
2019-02-03T05:19:07.852Z,26.30
2019-02-03T05:20:08.023Z,27.90
2019-02-03T05:21:08.251Z,27.20
2019-02-03T05:22:08.486Z,27.50
2019-02-03T05:23:08.724Z,27.40
2019-02-03T05:24:08.968Z,27.80
2019-02-03T05:25:09.170Z,27.50
2019-02-03T05:26:09.366Z,28.10
2019-02-03T05:27:09.614Z,26.40
2019-02-03T05:28:09.876Z,27.80
2019-02-03T05:29:10.040Z,27.40
2019-02-03T05:30:10.281Z,28.20
2019-02-03T05:31:10.535Z,28.40
2019-02-03T05:32:10.711Z,29.20
2019-02-03T05:33:10.947Z,28.80
2019-02-03T05:34:11.205Z,27.40
2019-02-03T05:35:11.400Z,29.30
2019-02-03T05:36:11.646Z,28.00
2019-02-03T05:37:11.848Z,27.80
2019-02-03T05:38:12.037Z,28.30
2019-02-03T05:39:23.891Z,29.50
2019-02-03T05:40:12.448Z,28.40
2019-02-03T05:41:12.675Z,28.60
2019-02-03T05:42:12.924Z,29.10
2019-02-03T05:43:13.090Z,27.10
2019-02-03T05:44:13.322Z,28.20
2019-02-03T05:45:13.549Z,28.80
2019-02-03T05:46:13.734Z,26.80
2019-02-03T05:47:13.960Z,28.30
2019-02-03T05:48:14.161Z,30.70
2019-02-03T05:49:14.405Z,28.70
2019-02-03T05:50:14.631Z,27.90
2019-02-03T05:51:14.785Z,27.90
2019-02-03T05:52:14.997Z,27.40
2019-02-03T05:53:15.217Z,28.50
2019-02-03T05:54:15.523Z,26.40
2019-02-03T05:55:15.660Z,27.40
2019-02-03T05:56:15.881Z,27.90
2019-02-03T05:57:16.152Z,28.50
2019-02-03T05:58:16.313Z,26.50
2019-02-03T05:59:16.516Z,26.70
2019-02-03T06:00:16.746Z,26.40
2019-02-03T06:01:16.946Z,27.20
2019-02-03T06:02:17.169Z,26.80
2019-02-03T06:03:17.383Z,27.60
2019-02-03T06:04:17.598Z,26.50
2019-02-03T06:05:17.827Z,27.50
2019-02-03T06:06:18.032Z,28.90
2019-02-03T06:07:18.217Z,28.50
2019-02-03T06:08:18.443Z,27.40
2019-02-03T06:09:18.664Z,27.60
2019-02-03T06:10:18.907Z,26.80
2019-02-03T06:11:19.141Z,28.00
2019-02-03T06:12:19.301Z,28.10
2019-02-03T06:13:19.574Z,27.20
2019-02-03T06:14:19.729Z,28.10
2019-02-03T06:15:19.972Z,28.90
2019-02-03T06:16:20.160Z,26.80
2019-02-03T06:17:20.385Z,28.60
2019-02-03T06:18:20.625Z,27.00
2019-02-03T06:19:20.786Z,27.00
2019-02-03T06:20:21.070Z,25.90
2019-02-03T06:21:21.248Z,26.50
2019-02-03T06:22:21.423Z,28.80
2019-02-03T06:23:21.685Z,27.70
2019-02-03T06:24:21.911Z,28.80
2019-02-03T06:25:22.052Z,27.50
2019-02-03T06:26:22.342Z,26.20
2019-02-03T06:27:22.480Z,26.90
2019-02-03T06:28:22.732Z,27.30
2019-02-03T06:29:22.911Z,28.20
2019-02-03T06:30:23.111Z,27.00
2019-02-03T06:31:23.396Z,28.30
2019-02-03T06:32:23.545Z,24.90
2019-02-03T06:33:23.807Z,25.70
2019-02-03T06:34:23.964Z,25.70
2019-02-03T06:35:24.182Z,27.40
2019-02-03T06:36:24.426Z,27.80
2019-02-03T06:37:24.624Z,26.80
2019-02-03T06:38:24.826Z,27.00
2019-02-03T06:39:25.061Z,27.30
2019-02-03T06:40:25.221Z,26.50
2019-02-03T06:41:25.498Z,28.00
2019-02-03T06:42:25.673Z,25.40
2019-02-03T06:43:26.499Z,27.80
2019-02-03T06:44:26.160Z,26.30
2019-02-03T06:45:26.359Z,26.90
2019-02-03T06:46:26.534Z,25.90
2019-02-03T06:47:26.793Z,26.90
2019-02-03T06:48:26.946Z,25.70
2019-02-03T06:49:27.174Z,26.70
2019-02-03T06:50:27.394Z,25.90
2019-02-03T06:51:27.590Z,25.90
2019-02-03T06:52:27.825Z,25.00
2019-02-03T06:53:28.029Z,26.10
2019-02-03T06:54:28.245Z,24.50
2019-02-03T06:55:28.461Z,26.20
2019-02-03T06:56:28.674Z,24.80
2019-02-03T06:57:28.899Z,25.50
2019-02-03T06:58:29.108Z,24.10
2019-02-03T06:59:29.287Z,24.80
2019-02-03T07:00:29.580Z,25.30
2019-02-03T07:01:29.666Z,24.70
2019-02-03T07:02:29.884Z,25.80
2019-02-03T07:03:30.115Z,24.80
2019-02-03T07:04:30.296Z,24.60
2019-02-03T07:05:30.573Z,25.00
2019-02-03T07:06:30.748Z,24.10
2019-02-03T07:07:30.985Z,25.50
2019-02-03T07:08:31.207Z,23.70
2019-02-03T07:09:31.373Z,23.30
2019-02-03T07:10:31.590Z,24.00
2019-02-03T07:11:31.829Z,23.00
2019-02-03T07:12:32.003Z,24.10
2019-02-03T07:13:32.262Z,24.00
2019-02-03T07:14:32.439Z,23.50
2019-02-03T07:15:32.675Z,22.60
2019-02-03T07:16:40.605Z,22.70
2019-02-03T07:17:33.076Z,23.60
2019-02-03T07:18:33.343Z,25.10
2019-02-03T07:19:33.506Z,24.90
2019-02-03T07:20:33.752Z,22.50
2019-02-03T07:21:33.981Z,22.70
2019-02-03T07:22:34.147Z,21.60
2019-02-03T07:23:34.393Z,22.70
2019-02-03T07:24:34.611Z,21.70
2019-02-03T07:25:34.798Z,23.00
2019-02-03T07:26:35.057Z,22.80
2019-02-03T07:27:35.208Z,21.10
2019-02-03T07:28:35.424Z,20.60
2019-02-03T07:29:35.623Z,21.80
2019-02-03T07:30:35.868Z,20.70
2019-02-03T07:31:36.081Z,21.00
2019-02-03T07:32:36.298Z,21.20
2019-02-03T07:33:36.522Z,21.00
2019-02-03T07:34:36.724Z,22.20
2019-02-03T07:35:36.935Z,21.50
2019-02-03T07:36:37.154Z,21.50
2019-02-03T07:37:37.373Z,20.30
2019-02-03T07:38:37.590Z,21.40
2019-02-03T07:39:37.822Z,21.20
2019-02-03T07:40:38.018Z,20.00
2019-02-03T07:41:38.249Z,20.10
2019-02-03T07:42:38.463Z,18.80
2019-02-03T07:43:38.643Z,20.10
2019-02-03T07:44:38.907Z,18.80
2019-02-03T07:45:39.083Z,20.60
2019-02-03T07:46:39.330Z,18.80
2019-02-03T07:47:39.547Z,20.60
2019-02-03T07:48:39.741Z,19.20
2019-02-03T07:49:39.923Z,19.60
2019-02-03T07:50:40.199Z,18.50
2019-02-03T07:51:40.350Z,18.10
2019-02-03T07:52:40.604Z,19.30
2019-02-03T07:53:40.778Z,18.80
2019-02-03T07:54:41.039Z,19.10
2019-02-03T07:55:41.234Z,20.30
2019-02-03T07:56:41.459Z,19.50
2019-02-03T07:57:41.687Z,18.70
2019-02-03T07:58:41.896Z,18.10
2019-02-03T07:59:42.119Z,18.50
2019-02-03T08:00:42.336Z,18.30
2019-02-03T08:01:42.554Z,17.70
2019-02-03T08:02:42.772Z,17.40
2019-02-03T08:03:43.018Z,17.50
2019-02-03T08:04:43.213Z,19.30
2019-02-03T08:05:43.441Z,19.10
2019-02-03T08:06:43.637Z,18.10
2019-02-03T08:07:43.843Z,18.60
2019-02-03T08:08:44.057Z,19.90
2019-02-03T08:09:44.280Z,18.70
2019-02-03T08:10:44.483Z,17.80
2019-02-03T08:11:44.708Z,18.10
2019-02-03T08:12:44.887Z,16.30
2019-02-03T08:13:45.161Z,17.60
2019-02-03T08:14:45.347Z,18.60
2019-02-03T08:15:45.520Z,17.40
2019-02-03T08:16:45.730Z,18.30
2019-02-03T08:17:45.966Z,18.30
2019-02-03T08:18:46.171Z,18.50
2019-02-03T08:19:46.378Z,19.00
2019-02-03T08:20:46.612Z,17.30
2019-02-03T08:21:46.828Z,17.80
2019-02-03T08:22:47.027Z,18.50
2019-02-03T08:23:47.250Z,18.70
2019-02-03T08:24:47.459Z,18.00
2019-02-03T08:25:47.690Z,18.00
2019-02-03T08:26:47.897Z,18.00
2019-02-03T08:27:48.110Z,18.40
2019-02-03T08:28:48.319Z,18.70
2019-02-03T08:29:48.529Z,19.60
2019-02-03T08:30:48.748Z,19.60
2019-02-03T08:31:48.960Z,18.30
2019-02-03T08:32:49.170Z,18.70
2019-02-03T08:33:49.387Z,18.20
2019-02-03T08:34:49.593Z,18.50
2019-02-03T08:35:49.807Z,19.30
2019-02-03T08:36:50.042Z,18.90
2019-02-03T08:37:50.242Z,20.00
2019-02-03T08:38:50.452Z,21.00
2019-02-03T08:39:50.661Z,19.20
2019-02-03T08:40:50.888Z,19.60
2019-02-03T08:41:51.153Z,18.30
2019-02-03T08:42:51.405Z,19.80
2019-02-03T08:43:51.551Z,20.30
2019-02-03T08:44:51.766Z,19.50
2019-02-03T08:45:51.991Z,20.60
2019-02-03T08:46:52.268Z,19.40
2019-02-03T08:47:52.453Z,20.80
2019-02-03T08:48:52.624Z,20.70
2019-02-03T08:49:52.841Z,21.40
2019-02-03T08:50:53.065Z,21.00
2019-02-03T08:51:53.274Z,21.20
2019-02-03T08:52:53.505Z,21.20
2019-02-03T08:53:53.729Z,20.40
2019-02-03T08:54:58.299Z,22.10
2019-02-03T08:55:54.134Z,20.90
2019-02-03T08:56:54.349Z,20.80
2019-02-03T08:57:57.674Z,21.50
2019-02-03T08:58:54.785Z,21.50
2019-02-03T08:59:55.025Z,22.50
2019-02-03T09:00:55.214Z,21.70
2019-02-03T09:01:55.435Z,22.20
2019-02-03T09:02:55.661Z,21.90
2019-02-03T09:03:55.898Z,21.80
2019-02-03T09:04:56.088Z,21.30
2019-02-03T09:05:56.336Z,22.00
2019-02-03T09:06:57.851Z,22.60
2019-02-03T09:07:56.773Z,21.60
2019-02-03T09:08:56.997Z,22.70
2019-02-03T09:09:57.224Z,21.20
2019-02-03T09:10:57.433Z,22.70
2019-02-03T09:11:57.653Z,23.20
2019-02-03T09:12:57.874Z,22.70
2019-02-03T09:13:58.093Z,22.50
2019-02-03T09:14:58.308Z,22.20
2019-02-03T09:15:58.534Z,22.80
2019-02-03T09:16:58.768Z,23.80
2019-02-03T09:17:58.970Z,22.40
2019-02-03T09:18:59.190Z,22.20
2019-02-03T09:19:59.407Z,22.10
2019-02-03T09:20:59.621Z,21.30
2019-02-03T09:21:59.835Z,21.80
2019-02-03T09:23:00.051Z,21.40
2019-02-03T09:24:00.270Z,21.70
2019-02-03T09:25:00.486Z,21.90
2019-02-03T09:26:00.704Z,21.00
2019-02-03T09:27:00.925Z,20.10
2019-02-03T09:28:01.144Z,21.00
2019-02-03T09:29:01.358Z,21.60
2019-02-03T09:30:01.580Z,21.90
2019-02-03T09:31:01.792Z,20.80
2019-02-03T09:32:02.031Z,20.80
2019-02-03T09:33:02.227Z,20.80
2019-02-03T09:34:02.445Z,21.20
2019-02-03T09:35:02.663Z,20.50
2019-02-03T09:36:02.880Z,20.20
2019-02-03T09:37:03.094Z,21.00
2019-02-03T09:38:03.315Z,21.40
2019-02-03T09:39:03.530Z,20.80
2019-02-03T09:40:03.765Z,20.40
2019-02-03T09:41:03.963Z,19.20
2019-02-03T09:42:04.192Z,19.10
2019-02-03T09:43:04.410Z,19.60
2019-02-03T09:44:04.632Z,18.80
2019-02-03T09:45:04.855Z,19.00
2019-02-03T09:46:05.071Z,17.70
2019-02-03T09:47:05.308Z,18.30
2019-02-03T09:48:05.527Z,17.50
2019-02-03T09:49:05.743Z,16.00
2019-02-03T09:50:05.967Z,15.50
2019-02-03T09:51:06.193Z,17.00
2019-02-03T09:52:06.416Z,16.90
2019-02-03T09:53:06.639Z,15.80
2019-02-03T09:54:06.859Z,14.80
2019-02-03T09:55:07.156Z,14.80
2019-02-03T09:56:07.327Z,14.80
2019-02-03T09:57:07.480Z,15.40
2019-02-03T09:58:07.758Z,15.90
2019-02-03T09:59:07.972Z,15.80
2019-02-03T10:00:08.191Z,15.30
2019-02-03T10:01:08.479Z,15.70
2019-02-03T10:02:08.572Z,15.50
2019-02-03T10:03:08.793Z,15.40
2019-02-03T10:04:09.015Z,15.60
2019-02-03T10:05:09.233Z,15.10
2019-02-03T10:06:09.500Z,16.00
2019-02-03T10:07:09.678Z,15.20
2019-02-03T10:08:09.900Z,15.40
2019-02-03T10:09:10.126Z,16.40
2019-02-03T10:10:10.346Z,16.10
2019-02-03T10:11:12.041Z,15.60
2019-02-03T10:12:10.790Z,14.80
2019-02-03T10:13:11.011Z,15.30
2019-02-03T10:14:11.235Z,15.70
2019-02-03T10:15:11.450Z,14.90
2019-02-03T10:16:11.671Z,15.60
2019-02-03T10:17:11.928Z,14.90
2019-02-03T10:18:12.157Z,15.30
2019-02-03T10:19:12.397Z,15.00
2019-02-03T10:20:12.615Z,14.50
2019-02-03T10:21:12.844Z,14.40
2019-02-03T10:22:13.050Z,14.00
2019-02-03T10:23:13.295Z,14.90
2019-02-03T10:24:13.507Z,14.70
2019-02-03T10:25:13.728Z,14.10
2019-02-03T10:26:13.951Z,14.30
2019-02-03T10:27:14.166Z,14.20
2019-02-03T10:28:14.396Z,14.30
2019-02-03T10:29:14.615Z,14.80
2019-02-03T10:30:14.834Z,14.00
2019-02-03T10:31:15.052Z,13.70
2019-02-03T10:32:15.275Z,13.80
2019-02-03T10:33:15.496Z,13.00
2019-02-03T10:34:15.743Z,13.70
2019-02-03T10:35:22.967Z,13.30
2019-02-03T10:36:16.222Z,12.50
2019-02-03T10:37:16.420Z,13.20
2019-02-03T10:38:16.618Z,14.50
2019-02-03T10:39:16.846Z,13.40
2019-02-03T10:40:17.099Z,13.40
2019-02-03T10:41:24.144Z,12.90
2019-02-03T10:42:17.549Z,12.40
2019-02-03T10:43:17.785Z,13.40
2019-02-03T10:44:17.985Z,13.10
2019-02-03T10:45:18.205Z,13.30
2019-02-03T10:46:18.428Z,13.10
2019-02-03T10:47:18.643Z,13.10
2019-02-03T10:48:18.866Z,13.30
2019-02-03T10:49:19.081Z,13.70
2019-02-03T10:50:19.293Z,13.30
2019-02-03T10:51:19.509Z,13.40
2019-02-03T10:52:19.730Z,13.40
2019-02-03T10:53:19.956Z,13.30
2019-02-03T10:54:20.171Z,12.80
2019-02-03T10:55:20.393Z,13.80
2019-02-03T10:56:20.621Z,13.40
2019-02-03T10:57:20.831Z,12.90
2019-02-03T10:58:21.055Z,13.40
2019-02-03T10:59:21.270Z,12.80
2019-02-03T11:00:21.500Z,13.40
2019-02-03T11:01:21.706Z,12.60
2019-02-03T11:02:21.946Z,13.10
2019-02-03T11:03:22.155Z,14.00
2019-02-03T11:04:22.384Z,14.20
2019-02-03T11:05:22.599Z,13.30
2019-02-03T11:06:22.807Z,13.00
2019-02-03T11:07:23.030Z,13.30
2019-02-03T11:08:23.394Z,12.90
2019-02-03T11:09:23.478Z,13.90
2019-02-03T11:10:23.706Z,13.70
2019-02-03T11:11:36.160Z,13.60
2019-02-03T11:12:24.159Z,14.40
2019-02-03T11:13:24.371Z,14.00
2019-02-03T11:14:24.596Z,14.20
2019-02-03T11:15:24.818Z,13.60
2019-02-03T11:16:25.046Z,13.50
2019-02-03T11:17:25.266Z,13.90
2019-02-03T11:18:25.496Z,14.70
2019-02-03T11:19:25.716Z,13.70
2019-02-03T11:20:25.940Z,13.20
2019-02-03T11:21:26.160Z,14.00
2019-02-03T11:22:26.382Z,14.60
2019-02-03T11:23:26.601Z,15.40
2019-02-03T11:24:26.822Z,14.90
2019-02-03T11:25:27.044Z,15.10
2019-02-03T11:26:27.264Z,14.40
2019-02-03T11:27:27.495Z,13.80
2019-02-03T11:28:27.731Z,14.90
2019-02-03T11:29:27.943Z,14.00
2019-02-03T11:30:28.171Z,13.60
2019-02-03T11:31:28.404Z,14.10
2019-02-03T11:32:28.639Z,14.50
2019-02-03T11:33:28.845Z,14.50
2019-02-03T11:34:29.064Z,14.60
2019-02-03T11:35:29.282Z,14.50
2019-02-03T11:36:29.510Z,14.40
2019-02-03T11:37:29.742Z,15.40
2019-02-03T11:38:29.967Z,13.90
2019-02-03T11:39:30.192Z,12.90
2019-02-03T11:40:30.407Z,13.90
2019-02-03T11:41:30.705Z,13.50
2019-02-03T11:42:30.941Z,13.20
2019-02-03T11:43:31.043Z,13.50
2019-02-03T11:44:31.403Z,13.90
2019-02-03T11:45:31.571Z,14.00
2019-02-03T11:46:31.763Z,13.60
2019-02-03T11:47:31.932Z,13.60
2019-02-03T11:48:32.144Z,13.60
2019-02-03T11:49:32.328Z,12.80
2019-02-03T11:50:32.539Z,13.30
2019-02-03T11:51:32.675Z,13.40
2019-02-03T11:52:32.949Z,13.20
2019-02-03T11:53:33.175Z,12.40
2019-02-03T11:54:33.499Z,13.20
2019-02-03T11:55:33.687Z,13.10
2019-02-03T11:56:33.801Z,13.10
2019-02-03T11:57:34.036Z,12.40
2019-02-03T11:58:34.317Z,12.50
2019-02-03T11:59:34.681Z,12.80
2019-02-03T12:00:34.815Z,12.30
2019-02-03T12:01:35.051Z,11.90
2019-02-03T12:02:42.019Z,12.50
2019-02-03T12:03:35.682Z,11.90
2019-02-03T12:04:35.861Z,12.40
2019-02-03T12:05:35.964Z,12.60
2019-02-03T12:06:36.193Z,11.70
2019-02-03T12:07:36.446Z,12.20
2019-02-03T12:08:36.684Z,12.20
2019-02-03T12:09:36.909Z,12.50
2019-02-03T12:10:37.132Z,12.20
2019-02-03T12:11:37.409Z,13.60
2019-02-03T12:12:37.641Z,12.70
2019-02-03T12:13:37.890Z,11.80
2019-02-03T12:14:38.189Z,11.50
2019-02-03T12:15:38.303Z,12.60
2019-02-03T12:16:38.567Z,11.70
2019-02-03T12:17:38.885Z,11.40
2019-02-03T12:18:39.129Z,12.30
2019-02-03T12:19:39.272Z,11.20
2019-02-03T12:20:39.559Z,10.90
2019-02-03T12:21:39.735Z,11.80
2019-02-03T12:22:39.836Z,11.50
2019-02-03T12:23:40.150Z,11.80
2019-02-03T12:24:40.264Z,12.00
2019-02-03T12:25:40.510Z,11.70
2019-02-03T12:26:40.739Z,11.10
2019-02-03T12:27:41.072Z,11.50
2019-02-03T12:28:41.298Z,10.70
2019-02-03T12:29:41.467Z,12.00
2019-02-03T12:30:41.618Z,12.20
2019-02-03T12:31:41.923Z,12.40
2019-02-03T12:32:42.018Z,11.50
2019-02-03T12:33:42.298Z,12.40
2019-02-03T12:34:42.619Z,11.90
2019-02-03T12:35:42.808Z,12.50
2019-02-03T12:36:42.961Z,11.90
2019-02-03T12:37:43.199Z,12.10
2019-02-03T12:38:43.535Z,12.70
2019-02-03T12:39:43.721Z,12.60
2019-02-03T12:40:43.855Z,12.60
2019-02-03T12:41:44.154Z,12.40
2019-02-03T12:42:44.338Z,12.60
2019-02-03T12:43:44.634Z,12.80
2019-02-03T12:44:44.786Z,12.70
2019-02-03T12:45:44.935Z,13.10
2019-02-03T12:46:45.218Z,12.00
2019-02-03T12:47:45.383Z,12.30
2019-02-03T12:48:45.484Z,11.80
2019-02-03T12:49:45.743Z,13.00
2019-02-03T12:50:45.974Z,12.60
2019-02-03T12:51:46.977Z,12.00
2019-02-03T12:52:46.443Z,13.60
2019-02-03T12:53:46.669Z,11.50
2019-02-03T12:54:46.891Z,12.30
2019-02-03T12:55:47.117Z,12.70